createdAt,value
2022-10-11T00:00:11.746Z,6.72
2022-10-11T00:00:44.183Z,5.80
2022-10-11T00:01:16.189Z,12.05
2022-10-11T00:01:48.112Z,10.98
2022-10-11T00:02:20.114Z,5.85
2022-10-11T00:02:51.958Z,8.40
2022-10-11T00:03:23.777Z,5.18
2022-10-11T00:03:55.622Z,6.68
2022-10-11T00:04:27.437Z,5.75
2022-10-11T00:04:59.232Z,7.45
2022-10-11T00:05:31.270Z,6.78
2022-10-11T00:06:05.897Z,9.45
2022-10-11T00:06:38.538Z,16.55
2022-10-11T00:07:10.401Z,7.28
2022-10-11T00:07:42.268Z,8.05
2022-10-11T00:08:14.583Z,6.95
2022-10-11T00:08:46.437Z,9.52
2022-10-11T00:09:18.275Z,7.65
2022-10-11T00:09:50.151Z,8.13
2022-10-11T00:10:22.222Z,8.20
2022-10-11T00:11:01.944Z,6.60
2022-10-11T00:11:34.213Z,7.70
2022-10-11T00:12:06.897Z,10.10
2022-10-11T00:12:38.837Z,7.62
2022-10-11T00:13:10.797Z,6.60
2022-10-11T00:13:42.636Z,8.30
2022-10-11T00:14:14.704Z,9.18
2022-10-11T00:14:46.507Z,6.68
2022-10-11T00:15:21.138Z,8.40
2022-10-11T00:15:53.484Z,8.50
2022-10-11T00:16:25.320Z,7.78
2022-10-11T00:16:57.478Z,6.90
2022-10-11T00:17:29.456Z,7.57
2022-10-11T00:18:05.256Z,6.53
2022-10-11T00:18:38.330Z,8.32
2022-10-11T00:19:11.373Z,8.82
2022-10-11T00:19:43.181Z,9.93
2022-10-11T00:20:15.018Z,7.95
2022-10-11T00:20:46.843Z,9.20
2022-10-11T00:21:20.628Z,8.98
2022-10-11T00:21:52.449Z,8.52
2022-10-11T00:22:24.572Z,9.35
2022-10-11T00:22:56.431Z,8.48
2022-10-11T00:23:28.231Z,9.63
2022-10-11T00:24:00.192Z,8.95
2022-10-11T00:24:32.030Z,11.20
2022-10-11T00:25:06.097Z,13.23
2022-10-11T00:25:37.990Z,7.62
2022-10-11T00:26:11.365Z,6.03
2022-10-11T00:26:46.807Z,7.85
2022-10-11T00:27:19.653Z,8.93
2022-10-11T00:27:51.942Z,10.35
2022-10-11T00:28:23.847Z,10.23
2022-10-11T00:28:55.779Z,7.62
2022-10-11T00:29:27.697Z,6.37
2022-10-11T00:29:59.508Z,8.35
2022-10-11T00:30:32.330Z,8.30
2022-10-11T00:31:11.072Z,9.30
2022-10-11T00:31:43.080Z,9.00
2022-10-11T00:32:14.912Z,9.00
2022-10-11T00:32:46.763Z,9.95
2022-10-11T00:33:19.024Z,10.27
2022-10-11T00:33:50.971Z,9.73
2022-10-11T00:34:23.016Z,7.70
2022-10-11T00:34:56.174Z,9.75
2022-10-11T00:35:28.035Z,12.18
2022-10-11T00:36:01.581Z,8.90
2022-10-11T00:36:34.090Z,9.57
2022-10-11T00:37:06.026Z,6.75
2022-10-11T00:37:39.455Z,9.05
2022-10-11T00:38:11.528Z,7.53
2022-10-11T00:38:44.551Z,10.93
2022-10-11T00:39:16.508Z,6.37
2022-10-11T00:39:49.461Z,12.13
2022-10-11T00:40:21.508Z,9.48
2022-10-11T00:40:53.425Z,9.35
2022-10-11T00:41:25.294Z,11.35
2022-10-11T00:41:57.148Z,6.90
2022-10-11T00:42:29.031Z,7.78
2022-10-11T00:43:00.891Z,7.78
2022-10-11T00:43:33.045Z,5.47
2022-10-11T00:44:12.844Z,7.43
2022-10-11T00:44:48.964Z,7.18
2022-10-11T00:45:40.936Z,8.30
2022-10-11T00:46:18.734Z,11.20
2022-10-11T00:47:12.553Z,9.85
2022-10-11T00:47:44.412Z,9.38
2022-10-11T00:48:27.659Z,6.43
2022-10-11T00:49:14.584Z,7.15
2022-10-11T00:49:59.453Z,7.95
2022-10-11T00:50:33.828Z,6.62
2022-10-11T00:51:16.451Z,9.68
2022-10-11T00:51:56.691Z,8.93
2022-10-11T00:52:43.324Z,8.05
2022-10-11T00:53:15.524Z,7.68
2022-10-11T00:53:50.181Z,5.70
2022-10-11T00:54:25.712Z,9.50
2022-10-11T00:55:01.406Z,7.93
2022-10-11T00:55:38.969Z,7.43
2022-10-11T00:56:19.708Z,7.97
2022-10-11T00:57:30.963Z,9.32
2022-10-11T00:58:03.137Z,7.05
2022-10-11T00:58:37.121Z,7.60
2022-10-11T00:59:13.930Z,10.30
2022-10-11T00:59:50.424Z,6.68
2022-10-11T01:00:22.685Z,9.80
2022-10-11T01:00:54.845Z,7.43
2022-10-11T01:01:27.231Z,11.40
2022-10-11T01:01:59.294Z,9.15
2022-10-11T01:02:31.363Z,6.30
2022-10-11T01:03:04.853Z,6.82
2022-10-11T01:03:38.652Z,7.40
2022-10-11T01:04:10.512Z,9.43
2022-10-11T01:04:42.848Z,7.45
2022-10-11T01:05:29.367Z,6.70
2022-10-11T01:06:03.845Z,12.32
2022-10-11T01:06:36.057Z,8.73
2022-10-11T01:07:09.519Z,8.35
2022-10-11T01:07:42.180Z,6.82
2022-10-11T01:08:14.028Z,8.05
2022-10-11T01:08:46.511Z,9.73
2022-10-11T01:09:20.180Z,7.90
2022-10-11T01:09:52.056Z,8.70
2022-10-11T01:10:23.942Z,6.68
2022-10-11T01:10:56.792Z,11.75
2022-10-11T01:11:31.129Z,9.15
2022-10-11T01:12:07.045Z,11.05
2022-10-11T01:13:03.685Z,8.73
2022-10-11T01:13:57.240Z,9.38
2022-10-11T01:14:57.020Z,7.68
2022-10-11T01:15:42.497Z,7.90
2022-10-11T01:16:30.835Z,7.53
2022-10-11T01:17:27.519Z,8.50
2022-10-11T01:18:22.420Z,7.28
2022-10-11T01:19:06.148Z,6.05
2022-10-11T01:20:02.367Z,11.38
2022-10-11T01:20:57.024Z,7.03
2022-10-11T01:21:52.191Z,6.18
2022-10-11T01:23:08.204Z,12.43
2022-10-11T01:23:54.503Z,11.30
2022-10-11T01:24:28.988Z,7.55
2022-10-11T01:25:12.695Z,7.18
2022-10-11T01:25:44.499Z,7.03
2022-10-11T01:26:31.465Z,5.93
2022-10-11T01:27:25.482Z,12.48
2022-10-11T01:28:09.499Z,9.05
2022-10-11T01:29:11.403Z,8.48
2022-10-11T01:30:04.419Z,9.13
2022-10-11T01:30:37.941Z,9.07
2022-10-11T01:31:24.063Z,8.80
2022-10-11T01:32:07.382Z,11.90
2022-10-11T01:32:49.108Z,10.10
2022-10-11T01:33:45.415Z,6.20
2022-10-11T01:34:44.939Z,8.82
2022-10-11T01:35:25.702Z,10.98
2022-10-11T01:37:15.229Z,7.70
2022-10-11T01:38:10.229Z,8.77
2022-10-11T01:38:47.084Z,7.35
2022-10-11T01:39:29.287Z,9.30
2022-10-11T01:40:06.249Z,10.50
2022-10-11T01:40:44.291Z,8.57
2022-10-11T01:41:23.604Z,7.53
2022-10-11T01:42:00.831Z,8.80
2022-10-11T01:42:33.771Z,9.35
2022-10-11T01:43:06.290Z,8.30
2022-10-11T01:43:40.518Z,6.62
2022-10-11T01:44:13.515Z,11.98
2022-10-11T01:44:49.137Z,7.40
2022-10-11T01:45:22.002Z,11.30
2022-10-11T01:45:56.216Z,8.45
2022-10-11T01:46:32.165Z,9.68
2022-10-11T01:47:04.130Z,11.38
2022-10-11T01:47:36.026Z,10.32
2022-10-11T01:48:10.756Z,7.85
2022-10-11T01:48:54.067Z,8.68
2022-10-11T01:49:26.271Z,10.68
2022-10-11T01:50:00.877Z,11.73
2022-10-11T01:50:35.234Z,7.60
2022-10-11T01:51:07.127Z,8.68
2022-10-11T01:51:50.230Z,8.60
2022-10-11T01:52:22.903Z,10.57
2022-10-11T01:52:57.099Z,8.30
2022-10-11T01:53:43.758Z,9.00
2022-10-11T01:54:50.249Z,7.43
2022-10-11T01:55:39.522Z,9.18
2022-10-11T01:56:36.353Z,14.95
2022-10-11T01:57:10.877Z,12.20
2022-10-11T01:57:59.909Z,9.10
2022-10-11T01:58:59.453Z,9.52
2022-10-11T01:59:58.451Z,9.25
2022-10-11T02:00:53.826Z,6.80
2022-10-11T02:01:44.417Z,12.37
2022-10-11T02:02:19.378Z,12.25
2022-10-11T02:03:18.561Z,10.43
2022-10-11T02:04:04.777Z,11.15
2022-10-11T02:04:50.852Z,7.72
2022-10-11T02:05:38.149Z,12.80
2022-10-11T02:06:16.036Z,9.57
2022-10-11T02:07:02.816Z,7.90
2022-10-11T02:07:45.465Z,11.12
2022-10-11T02:08:37.726Z,8.00
2022-10-11T02:09:25.486Z,8.70
2022-10-11T02:10:36.302Z,9.88
2022-10-11T02:11:28.882Z,9.70
2022-10-11T02:12:07.483Z,10.57
2022-10-11T02:13:11.624Z,7.68
2022-10-11T02:13:50.083Z,10.00
2022-10-11T02:14:27.026Z,7.93
2022-10-11T02:15:02.725Z,8.07
2022-10-11T02:15:39.290Z,9.75
2022-10-11T02:16:15.023Z,8.43
2022-10-11T02:16:52.432Z,9.57
2022-10-11T02:17:32.273Z,8.82
2022-10-11T02:18:10.096Z,8.05
2022-10-11T02:18:47.005Z,8.20
2022-10-11T02:19:24.942Z,9.23
2022-10-11T02:19:59.342Z,10.60
2022-10-11T02:20:33.672Z,7.72
2022-10-11T02:21:09.577Z,9.63
2022-10-11T02:21:44.418Z,7.70
2022-10-11T02:22:23.057Z,10.27
2022-10-11T02:23:03.738Z,9.38
2022-10-11T02:23:42.327Z,12.00
2022-10-11T02:24:27.624Z,7.97
2022-10-11T02:25:03.368Z,8.23
2022-10-11T02:25:36.589Z,9.98
2022-10-11T02:26:11.644Z,6.78
2022-10-11T02:26:49.224Z,7.93
2022-10-11T02:27:25.689Z,7.85
2022-10-11T02:28:01.016Z,13.18
2022-10-11T02:28:37.817Z,11.10
2022-10-11T02:29:12.348Z,9.38
2022-10-11T02:29:47.586Z,12.30
2022-10-11T02:30:19.461Z,12.55
2022-10-11T02:30:53.671Z,9.88
2022-10-11T02:31:26.270Z,9.90
2022-10-11T02:32:00.593Z,11.35
2022-10-11T02:32:34.001Z,11.18
2022-10-11T02:33:09.291Z,10.57
2022-10-11T02:33:48.134Z,10.90
2022-10-11T02:34:26.356Z,9.07
2022-10-11T02:35:00.958Z,11.10
2022-10-11T02:35:39.096Z,10.80
2022-10-11T02:36:28.717Z,9.43
2022-10-11T02:37:28.023Z,10.18
2022-10-11T02:38:12.392Z,10.02
2022-10-11T02:38:50.766Z,9.25
2022-10-11T02:39:51.643Z,9.43
2022-10-11T02:40:35.343Z,10.57
2022-10-11T02:41:18.185Z,12.48
2022-10-11T02:41:52.984Z,12.02
2022-10-11T02:42:30.899Z,11.43
2022-10-11T02:43:13.295Z,10.27
2022-10-11T02:44:08.229Z,7.78
2022-10-11T02:45:08.039Z,11.52
2022-10-11T02:45:54.126Z,9.70
2022-10-11T02:46:30.470Z,10.93
2022-10-11T02:47:03.819Z,8.10
2022-10-11T02:47:36.548Z,10.63
2022-10-11T02:48:10.379Z,12.10
2022-10-11T02:48:42.306Z,8.10
2022-10-11T02:49:16.414Z,10.85
2022-10-11T02:49:48.272Z,8.45
2022-10-11T02:50:22.298Z,8.30
2022-10-11T02:50:56.129Z,10.20
2022-10-11T02:51:31.734Z,12.63
2022-10-11T02:52:05.758Z,9.10
2022-10-11T02:52:37.626Z,8.73
2022-10-11T02:53:09.809Z,10.88
2022-10-11T02:53:41.684Z,9.43
2022-10-11T02:54:13.493Z,9.30
2022-10-11T02:54:45.637Z,11.48
2022-10-11T02:55:17.572Z,9.73
2022-10-11T02:55:51.708Z,10.38
2022-10-11T02:56:23.565Z,12.68
2022-10-11T02:56:55.398Z,10.57
2022-10-11T02:57:27.258Z,10.98
2022-10-11T02:57:59.128Z,9.63
2022-10-11T02:58:30.988Z,10.40
2022-10-11T02:59:02.879Z,11.70
2022-10-11T02:59:34.750Z,8.65
2022-10-11T03:00:07.898Z,10.27
2022-10-11T03:00:39.781Z,10.70
2022-10-11T03:01:11.628Z,13.35
2022-10-11T03:01:43.639Z,10.43
2022-10-11T03:02:15.588Z,10.43
2022-10-11T03:02:47.492Z,11.57
2022-10-11T03:03:19.522Z,8.80
2022-10-11T03:03:51.356Z,14.18
2022-10-11T03:04:23.233Z,12.68
2022-10-11T03:04:55.047Z,10.30
2022-10-11T03:05:27.192Z,8.13
2022-10-11T03:06:01.915Z,11.30
2022-10-11T03:06:34.125Z,12.32
2022-10-11T03:07:05.955Z,11.12
2022-10-11T03:07:37.826Z,11.63
2022-10-11T03:08:11.573Z,10.48
2022-10-11T03:08:43.399Z,9.77
2022-10-11T03:09:15.222Z,10.63
2022-10-11T03:09:47.173Z,13.85
2022-10-11T03:10:19.039Z,6.97
2022-10-11T03:10:51.137Z,8.57
2022-10-11T03:11:22.955Z,9.80
2022-10-11T03:11:54.761Z,13.85
2022-10-11T03:12:26.577Z,10.13
2022-10-11T03:12:58.386Z,9.80
2022-10-11T03:13:30.247Z,10.75
2022-10-11T03:14:02.066Z,8.93
2022-10-11T03:14:33.913Z,11.82
2022-10-11T03:15:06.245Z,12.23
2022-10-11T03:15:38.080Z,10.95
2022-10-11T03:16:10.723Z,8.73
2022-10-11T03:16:42.918Z,14.27
2022-10-11T03:17:34.915Z,8.60
2022-10-11T03:18:06.595Z,10.23
2022-10-11T03:18:38.479Z,9.93
2022-10-11T03:19:14.667Z,8.93
2022-10-11T03:19:50.269Z,13.90
2022-10-11T03:20:22.137Z,9.95
2022-10-11T03:20:54.204Z,10.20
2022-10-11T03:21:26.502Z,11.43
2022-10-11T03:21:58.315Z,7.60
2022-10-11T03:22:30.269Z,19.30
2022-10-11T03:23:02.222Z,10.40
2022-10-11T03:23:34.217Z,9.18
2022-10-11T03:24:06.398Z,8.70
2022-10-11T03:24:38.288Z,15.43
2022-10-11T03:25:10.096Z,8.52
2022-10-11T03:25:41.902Z,11.68
2022-10-11T03:26:13.997Z,15.45
2022-10-11T03:26:46.192Z,17.92
2022-10-11T03:27:18.033Z,9.82
2022-10-11T03:27:50.027Z,10.88
2022-10-11T03:28:22.170Z,11.93
2022-10-11T03:28:54.114Z,10.75
2022-10-11T03:29:26.001Z,14.35
2022-10-11T03:29:57.911Z,10.27
2022-10-11T03:30:29.916Z,8.27
2022-10-11T03:31:01.781Z,9.50
2022-10-11T03:31:33.620Z,12.65
2022-10-11T03:32:05.847Z,12.35
2022-10-11T03:32:37.822Z,9.50
2022-10-11T03:33:09.719Z,10.55
2022-10-11T03:33:41.576Z,10.93
2022-10-11T03:34:13.467Z,9.80
2022-10-11T03:34:45.319Z,9.82
2022-10-11T03:35:17.853Z,14.05
2022-10-11T03:35:50.594Z,13.77
2022-10-11T03:36:22.554Z,10.93
2022-10-11T03:36:54.366Z,10.57
2022-10-11T03:37:26.655Z,12.23
2022-10-11T03:37:58.477Z,8.88
2022-10-11T03:38:30.279Z,9.05
2022-10-11T03:39:03.413Z,10.18
2022-10-11T03:39:35.283Z,10.77
2022-10-11T03:40:08.739Z,8.88
2022-10-11T03:40:41.990Z,10.73
2022-10-11T03:41:13.887Z,10.88
2022-10-11T03:41:45.758Z,12.57
2022-10-11T03:42:17.580Z,13.55
2022-10-11T03:42:49.841Z,11.95
2022-10-11T03:43:21.687Z,11.23
2022-10-11T03:43:53.501Z,7.30
2022-10-11T03:44:25.419Z,13.68
2022-10-11T03:44:57.307Z,8.10
2022-10-11T03:45:29.128Z,9.70
2022-10-11T03:46:01.049Z,12.57
2022-10-11T03:46:32.981Z,13.25
2022-10-11T03:47:05.568Z,10.95
2022-10-11T03:47:38.718Z,13.82
2022-10-11T03:48:11.625Z,10.75
2022-10-11T03:48:43.444Z,12.18
2022-10-11T03:49:15.265Z,10.10
2022-10-11T03:49:47.158Z,11.60
2022-10-11T03:50:19.023Z,13.57
2022-10-11T03:50:51.045Z,12.00
2022-10-11T03:51:22.910Z,10.93
2022-10-11T03:51:54.822Z,12.85
2022-10-11T03:52:26.672Z,10.82
2022-10-11T03:52:58.672Z,11.05
2022-10-11T03:53:30.779Z,8.48
2022-10-11T03:54:02.625Z,10.27
2022-10-11T03:54:34.475Z,9.95
2022-10-11T03:55:07.287Z,9.82
2022-10-11T03:55:40.307Z,8.90
2022-10-11T03:56:12.339Z,8.25
2022-10-11T03:56:44.466Z,10.15
2022-10-11T03:57:16.276Z,11.93
2022-10-11T03:57:48.128Z,12.10
2022-10-11T03:58:20.206Z,9.10
2022-10-11T03:58:52.308Z,10.65
2022-10-11T03:59:24.504Z,13.98
2022-10-11T03:59:56.352Z,13.80
2022-10-11T04:00:28.320Z,9.27
2022-10-11T04:01:00.704Z,14.48
2022-10-11T04:01:37.565Z,8.60
2022-10-11T04:02:09.608Z,9.45
2022-10-11T04:02:41.424Z,13.75
2022-10-11T04:03:13.362Z,7.53
2022-10-11T04:03:45.218Z,10.70
2022-10-11T04:04:17.237Z,9.10
2022-10-11T04:04:49.062Z,8.02
2022-10-11T04:05:20.934Z,13.23
2022-10-11T04:05:52.824Z,9.93
2022-10-11T04:06:25.282Z,11.05
2022-10-11T04:06:57.156Z,13.98
2022-10-11T04:07:29.288Z,16.67
2022-10-11T04:08:01.135Z,15.88
2022-10-11T04:08:33.096Z,12.65
2022-10-11T04:09:05.089Z,11.05
2022-10-11T04:09:37.018Z,12.57
2022-10-11T04:10:09.087Z,8.75
2022-10-11T04:10:41.371Z,10.35
2022-10-11T04:11:13.245Z,10.55
2022-10-11T04:11:45.391Z,11.82
2022-10-11T04:12:17.213Z,9.73
2022-10-11T04:12:49.064Z,10.45
2022-10-11T04:13:20.895Z,11.05
2022-10-11T04:13:52.811Z,10.90
2022-10-11T04:14:24.689Z,9.73
2022-10-11T04:14:56.554Z,13.88
2022-10-11T04:15:28.430Z,10.10
2022-10-11T04:16:00.359Z,11.68
2022-10-11T04:16:32.268Z,9.45
2022-10-11T04:17:04.410Z,10.57
2022-10-11T04:17:36.227Z,11.32
2022-10-11T04:18:09.023Z,14.43
2022-10-11T04:18:41.026Z,11.15
2022-10-11T04:19:13.044Z,14.05
2022-10-11T04:19:44.907Z,11.05
2022-10-11T04:20:16.987Z,10.88
2022-10-11T04:20:48.868Z,10.98
2022-10-11T04:21:20.823Z,9.60
2022-10-11T04:21:52.631Z,12.50
2022-10-11T04:22:24.815Z,9.73
2022-10-11T04:22:56.652Z,15.10
2022-10-11T04:23:31.366Z,9.23
2022-10-11T04:24:03.274Z,9.32
2022-10-11T04:24:35.129Z,14.73
2022-10-11T04:25:08.221Z,12.60
2022-10-11T04:25:40.114Z,11.52
2022-10-11T04:26:12.132Z,12.60
2022-10-11T04:26:44.048Z,15.80
2022-10-11T04:27:15.962Z,14.63
2022-10-11T04:27:48.627Z,9.23
2022-10-11T04:28:20.572Z,11.88
2022-10-11T04:28:52.605Z,15.70
2022-10-11T04:29:30.063Z,15.07
2022-10-11T04:30:05.102Z,9.43
2022-10-11T04:30:37.056Z,8.30
2022-10-11T04:31:08.950Z,11.27
2022-10-11T04:31:40.823Z,10.88
2022-10-11T04:32:12.682Z,18.77
2022-10-11T04:32:45.239Z,12.98
2022-10-11T04:33:17.457Z,13.57
2022-10-11T04:33:49.508Z,9.73
2022-10-11T04:34:21.434Z,10.27
2022-10-11T04:34:53.737Z,16.65
2022-10-11T04:35:25.677Z,15.00
2022-10-11T04:35:57.713Z,25.08
2022-10-11T04:36:32.776Z,18.02
2022-10-11T04:37:04.666Z,13.23
2022-10-11T04:37:36.591Z,16.67
2022-10-11T04:38:08.526Z,18.52
2022-10-11T04:38:40.649Z,17.77
2022-10-11T04:39:12.988Z,18.12
2022-10-11T04:39:45.077Z,13.18
2022-10-11T04:40:16.959Z,16.48
2022-10-11T04:40:48.866Z,14.65
2022-10-11T04:41:20.704Z,19.52
2022-10-11T04:41:52.703Z,19.73
2022-10-11T04:42:24.567Z,15.10
2022-10-11T04:42:56.602Z,15.23
2022-10-11T04:43:28.412Z,18.73
2022-10-11T04:44:01.883Z,13.68
2022-10-11T04:44:33.708Z,18.67
2022-10-11T04:45:06.245Z,16.27
2022-10-11T04:45:38.240Z,13.75
2022-10-11T04:46:10.877Z,15.00
2022-10-11T04:46:43.232Z,14.82
2022-10-11T04:47:16.091Z,19.23
2022-10-11T04:47:48.795Z,19.10
2022-10-11T04:48:20.625Z,13.32
2022-10-11T04:48:52.478Z,17.90
2022-10-11T04:49:24.688Z,17.42
2022-10-11T04:49:56.556Z,17.95
2022-10-11T04:50:28.390Z,17.10
2022-10-11T04:51:02.172Z,17.70
2022-10-11T04:51:34.117Z,12.02
2022-10-11T04:52:06.152Z,14.95
2022-10-11T04:52:38.011Z,13.27
2022-10-11T04:53:09.903Z,15.80
2022-10-11T04:53:41.803Z,24.45
2022-10-11T04:54:13.770Z,17.35
2022-10-11T04:54:45.905Z,19.15
2022-10-11T04:55:17.876Z,18.73
2022-10-11T04:56:07.827Z,20.75
2022-10-11T04:56:40.082Z,14.00
2022-10-11T04:57:11.902Z,15.18
2022-10-11T04:57:43.767Z,23.12
2022-10-11T04:58:15.586Z,21.20
2022-10-11T04:58:54.018Z,18.15
2022-10-11T04:59:25.968Z,18.02
2022-10-11T04:59:58.197Z,18.40
2022-10-11T05:00:30.311Z,14.93
2022-10-11T05:01:02.443Z,16.80
2022-10-11T05:01:34.493Z,13.77
2022-10-11T05:02:06.466Z,14.30
2022-10-11T05:02:38.428Z,13.40
2022-10-11T05:03:10.300Z,12.80
2022-10-11T05:03:42.154Z,11.70
2022-10-11T05:04:14.053Z,15.35
2022-10-11T05:04:46.209Z,12.98
2022-10-11T05:05:18.412Z,15.95
2022-10-11T05:05:50.659Z,12.52
2022-10-11T05:06:22.510Z,14.68
2022-10-11T05:06:54.582Z,18.37
2022-10-11T05:07:26.495Z,12.45
2022-10-11T05:07:58.362Z,12.48
2022-10-11T05:08:30.482Z,20.48
2022-10-11T05:09:02.343Z,12.90
2022-10-11T05:09:34.660Z,18.60
2022-10-11T05:10:07.238Z,14.52
2022-10-11T05:10:39.432Z,16.98
2022-10-11T05:11:15.783Z,13.98
2022-10-11T05:11:48.039Z,14.55
2022-10-11T05:12:20.010Z,17.08
2022-10-11T05:12:51.846Z,13.60
2022-10-11T05:13:24.299Z,21.02
2022-10-11T05:13:56.674Z,13.05
2022-10-11T05:14:28.579Z,20.37
2022-10-11T05:15:00.482Z,20.77
2022-10-11T05:15:32.340Z,18.70
2022-10-11T05:16:08.370Z,13.70
2022-10-11T05:16:42.609Z,19.20
2022-10-11T05:17:14.477Z,16.37
2022-10-11T05:17:46.309Z,14.52
2022-10-11T05:18:18.370Z,18.52
2022-10-11T05:18:50.260Z,13.27
2022-10-11T05:19:22.123Z,12.00
2022-10-11T05:19:53.981Z,14.27
2022-10-11T05:20:26.570Z,16.35
2022-10-11T05:21:06.851Z,11.90
2022-10-11T05:21:39.020Z,11.82
2022-10-11T05:22:10.844Z,13.15
2022-10-11T05:22:42.679Z,15.73
2022-10-11T05:23:14.909Z,13.52
2022-10-11T05:23:48.504Z,13.80
2022-10-11T05:24:20.424Z,16.50
2022-10-11T05:24:52.232Z,11.20
2022-10-11T05:25:24.055Z,16.45
2022-10-11T05:25:55.961Z,12.35
2022-10-11T05:26:28.308Z,19.02
2022-10-11T05:27:03.368Z,15.32
2022-10-11T05:27:35.582Z,16.05
2022-10-11T05:28:07.679Z,14.00
2022-10-11T05:28:39.884Z,12.40
2022-10-11T05:29:11.818Z,14.75
2022-10-11T05:29:43.747Z,16.58
2022-10-11T05:30:15.765Z,11.98
2022-10-11T05:30:47.620Z,10.80
2022-10-11T05:31:20.167Z,13.77
2022-10-11T05:31:51.990Z,13.70
2022-10-11T05:32:27.689Z,13.27
2022-10-11T05:33:00.131Z,14.60
2022-10-11T05:33:32.653Z,12.75
2022-10-11T05:34:04.671Z,16.42
2022-10-11T05:34:36.557Z,12.68
2022-10-11T05:35:08.895Z,14.40
2022-10-11T05:35:40.888Z,11.70
2022-10-11T05:36:13.001Z,14.20
2022-10-11T05:36:44.809Z,16.15
2022-10-11T05:37:16.659Z,23.00
2022-10-11T05:37:48.808Z,12.18
2022-10-11T05:38:20.686Z,15.18
2022-10-11T05:38:52.542Z,16.67
2022-10-11T05:39:24.487Z,10.10
2022-10-11T05:39:56.602Z,11.98
2022-10-11T05:40:28.406Z,13.62
2022-10-11T05:41:01.742Z,14.52
2022-10-11T05:41:33.731Z,12.98
2022-10-11T05:42:09.789Z,11.23
2022-10-11T05:42:41.921Z,15.00
2022-10-11T05:43:14.182Z,18.12
2022-10-11T05:43:46.086Z,19.30
2022-10-11T05:44:17.930Z,11.18
2022-10-11T05:44:49.726Z,11.60
2022-10-11T05:45:21.552Z,12.35
2022-10-11T05:45:53.459Z,18.77
2022-10-11T05:46:25.280Z,12.75
2022-10-11T05:46:57.153Z,14.40
2022-10-11T05:47:29.214Z,19.12
2022-10-11T05:48:01.056Z,15.38
2022-10-11T05:48:33.409Z,15.15
2022-10-11T05:49:05.245Z,16.95
2022-10-11T05:49:37.251Z,14.07
2022-10-11T05:50:09.582Z,14.70
2022-10-11T05:50:41.457Z,14.32
2022-10-11T05:51:13.396Z,16.20
2022-10-11T05:51:45.276Z,15.00
2022-10-11T05:52:20.433Z,14.87
2022-10-11T05:52:52.322Z,14.90
2022-10-11T05:53:24.128Z,17.50
2022-10-11T05:53:56.240Z,12.30
2022-10-11T05:54:31.474Z,14.43
2022-10-11T05:55:04.332Z,17.08
2022-10-11T05:55:38.226Z,11.85
2022-10-11T05:56:24.803Z,16.35
2022-10-11T05:56:56.760Z,14.65
2022-10-11T05:57:28.734Z,19.77
2022-10-11T05:58:00.565Z,13.07
2022-10-11T05:58:32.442Z,14.73
2022-10-11T05:59:05.045Z,20.45
2022-10-11T05:59:37.013Z,20.00
2022-10-11T06:00:09.587Z,16.98
2022-10-11T06:00:44.351Z,22.42
2022-10-11T06:01:22.206Z,13.07
2022-10-11T06:01:54.153Z,17.15
2022-10-11T06:02:26.148Z,17.42
2022-10-11T06:02:57.971Z,14.93
2022-10-11T06:03:29.823Z,14.52
2022-10-11T06:04:02.585Z,16.92
2022-10-11T06:04:37.475Z,14.68
2022-10-11T06:05:09.586Z,12.40
2022-10-11T06:05:41.563Z,16.05
2022-10-11T06:06:13.451Z,15.35
2022-10-11T06:06:45.708Z,16.12
2022-10-11T06:07:17.544Z,10.70
2022-10-11T06:07:49.385Z,16.02
2022-10-11T06:08:21.280Z,15.93
2022-10-11T06:08:53.131Z,16.42
2022-10-11T06:09:24.975Z,14.38
2022-10-11T06:09:56.820Z,17.25
2022-10-11T06:10:28.814Z,13.10
2022-10-11T06:11:12.056Z,11.65
2022-10-11T06:11:45.476Z,11.82
2022-10-11T06:12:17.977Z,18.65
2022-10-11T06:12:49.895Z,14.55
2022-10-11T06:13:21.741Z,19.70
2022-10-11T06:13:55.652Z,12.88
2022-10-11T06:14:27.738Z,12.82
2022-10-11T06:15:00.141Z,19.45
2022-10-11T06:15:32.465Z,14.07
2022-10-11T06:16:05.148Z,13.35
2022-10-11T06:16:37.703Z,12.13
2022-10-11T06:17:09.667Z,15.95
2022-10-11T06:17:41.897Z,16.70
2022-10-11T06:18:14.090Z,12.05
2022-10-11T06:18:46.062Z,13.90
2022-10-11T06:19:17.897Z,16.27
2022-10-11T06:19:50.404Z,14.57
2022-10-11T06:20:22.285Z,14.98
2022-10-11T06:20:54.151Z,14.40
2022-10-11T06:21:26.203Z,13.13
2022-10-11T06:21:58.097Z,17.48
2022-10-11T06:22:29.950Z,20.80
2022-10-11T06:23:02.113Z,20.92
2022-10-11T06:23:34.085Z,27.90
2022-10-11T06:24:06.445Z,19.40
2022-10-11T06:24:38.298Z,29.25
2022-10-11T06:25:10.854Z,31.15
2022-10-11T06:25:42.692Z,19.70
2022-10-11T06:26:14.555Z,17.25
2022-10-11T06:26:49.045Z,20.17
2022-10-11T06:27:20.975Z,18.10
2022-10-11T06:27:52.861Z,15.98
2022-10-11T06:28:27.208Z,14.95
2022-10-11T06:28:59.256Z,21.37
2022-10-11T06:29:31.140Z,14.30
2022-10-11T06:30:03.491Z,16.10
2022-10-11T06:30:35.476Z,24.77
2022-10-11T06:31:07.584Z,23.20
2022-10-11T06:31:39.512Z,15.63
2022-10-11T06:32:13.308Z,16.30
2022-10-11T06:32:45.183Z,21.37
2022-10-11T06:33:17.183Z,29.17
2022-10-11T06:33:49.301Z,17.60
2022-10-11T06:34:21.527Z,17.35
2022-10-11T06:34:53.453Z,14.07
2022-10-11T06:35:25.324Z,16.35
2022-10-11T06:35:59.331Z,17.67
2022-10-11T06:36:31.272Z,17.25
2022-10-11T06:37:03.172Z,15.63
2022-10-11T06:37:35.068Z,14.85
2022-10-11T06:38:06.895Z,20.27
2022-10-11T06:38:44.480Z,22.55
2022-10-11T06:39:17.091Z,20.83
2022-10-11T06:39:50.526Z,19.58
2022-10-11T06:40:22.370Z,16.17
2022-10-11T06:40:54.566Z,19.77
2022-10-11T06:41:28.901Z,17.80
2022-10-11T06:42:01.188Z,20.42
2022-10-11T06:42:33.060Z,13.07
2022-10-11T06:43:04.900Z,18.25
2022-10-11T06:43:36.871Z,18.50
2022-10-11T06:44:14.173Z,16.27
2022-10-11T06:44:46.619Z,16.58
2022-10-11T06:45:18.455Z,17.67
2022-10-11T06:45:50.273Z,23.27
2022-10-11T06:46:26.125Z,20.85
2022-10-11T06:46:57.951Z,23.65
2022-10-11T06:47:29.815Z,19.75
2022-10-11T06:48:02.149Z,14.55
2022-10-11T06:48:34.588Z,26.20
2022-10-11T06:49:06.801Z,18.73
2022-10-11T06:49:38.635Z,15.52
2022-10-11T06:50:10.797Z,19.20
2022-10-11T06:50:58.967Z,15.10
2022-10-11T06:51:32.549Z,38.33
2022-10-11T06:52:05.078Z,37.80
2022-10-11T06:52:36.936Z,31.92
2022-10-11T06:53:08.872Z,58.30
2022-10-11T06:53:40.966Z,19.35
2022-10-11T06:54:12.795Z,34.45
2022-10-11T06:54:45.651Z,21.52
2022-10-11T06:55:17.772Z,23.20
2022-10-11T06:55:49.666Z,20.95
2022-10-11T06:56:21.972Z,23.92
2022-10-11T06:56:53.845Z,19.77
2022-10-11T06:57:25.723Z,19.83
2022-10-11T06:57:57.612Z,18.00
2022-10-11T06:58:29.493Z,19.12
2022-10-11T06:59:01.456Z,14.73
2022-10-11T06:59:33.353Z,21.17
2022-10-11T07:00:10.328Z,15.93
2022-10-11T07:00:45.678Z,20.55
2022-10-11T07:01:20.616Z,14.85
2022-10-11T07:01:52.526Z,17.05
2022-10-11T07:02:24.344Z,19.80
2022-10-11T07:02:56.201Z,16.55
2022-10-11T07:03:29.390Z,16.15
2022-10-11T07:04:03.006Z,14.13
2022-10-11T07:04:35.155Z,17.37
2022-10-11T07:05:07.722Z,18.02
2022-10-11T07:05:39.558Z,16.62
2022-10-11T07:06:15.327Z,17.92
2022-10-11T07:06:47.164Z,17.52
2022-10-11T07:07:19.413Z,13.65
2022-10-11T07:07:51.253Z,18.55
2022-10-11T07:08:23.137Z,13.93
2022-10-11T07:08:55.528Z,21.60
2022-10-11T07:09:27.588Z,14.40
2022-10-11T07:09:59.475Z,14.32
2022-10-11T07:10:31.386Z,16.67
2022-10-11T07:11:12.241Z,14.38
2022-10-11T07:11:44.420Z,17.27
2022-10-11T07:12:17.051Z,13.27
2022-10-11T07:12:48.928Z,19.60
2022-10-11T07:13:20.805Z,17.02
2022-10-11T07:13:55.480Z,13.70
2022-10-11T07:14:27.358Z,12.73
2022-10-11T07:14:59.903Z,14.13
2022-10-11T07:15:31.806Z,14.93
2022-10-11T07:16:06.031Z,14.77
2022-10-11T07:16:38.298Z,14.77
2022-10-11T07:17:10.566Z,14.27
2022-10-11T07:17:42.572Z,20.83
2022-10-11T07:18:14.518Z,10.93
2022-10-11T07:18:47.138Z,13.45
2022-10-11T07:19:19.037Z,11.85
2022-10-11T07:19:50.941Z,15.57
2022-10-11T07:20:22.892Z,16.50
2022-10-11T07:20:54.727Z,13.02
2022-10-11T07:21:26.872Z,16.30
2022-10-11T07:21:58.737Z,19.37
2022-10-11T07:22:30.901Z,12.23
2022-10-11T07:23:02.734Z,11.90
2022-10-11T07:23:34.917Z,13.85
2022-10-11T07:24:07.104Z,18.02
2022-10-11T07:24:38.990Z,14.87
2022-10-11T07:25:10.885Z,19.70
2022-10-11T07:25:42.812Z,12.40
2022-10-11T07:26:15.051Z,10.55
2022-10-11T07:26:46.869Z,13.00
2022-10-11T07:27:18.690Z,15.35
2022-10-11T07:27:50.882Z,15.98
2022-10-11T07:28:23.388Z,12.00
2022-10-11T07:28:55.450Z,12.73
2022-10-11T07:29:27.385Z,17.15
2022-10-11T07:29:59.261Z,13.02
2022-10-11T07:30:31.348Z,13.82